.
WxDataArchive / Data Records for 2015-12-02
2015-12-01 December 2015 2015-12-03

Data Records for Wednesday, 02 December 2015

Time	Temp	Chill	HIndex	Humid	Dewpt	 Wind 	HiWind	WindDir	Rain 	Barom
-----	----	-----	------	-----	-----	------	------	-------	-----	-----
00:00	29.0	29.0	29.0	92	27.0	0	0	---	0.00	29.883 
00:05	29.0	29.0	29.0	92	27.0	0	0	---	0.00	29.883 
00:10	29.0	29.0	29.0	92	27.0	0	0	---	0.00	29.883 
00:15	29.1	29.1	29.1	92	27.1	0	0	---	0.00	29.882 
00:20	29.0	29.0	29.0	92	27.0	0	0	---	0.00	29.882 
00:25	28.8	28.8	28.8	92	26.8	0	0	---	0.00	29.882 
00:30	28.8	28.8	28.8	92	26.8	0	0	---	0.00	29.883 
00:35	28.7	28.7	28.7	92	26.7	0	0	---	0.00	29.883 
00:40	28.7	28.7	28.7	92	26.7	0	0	---	0.00	29.883 
00:45	28.7	28.7	28.7	92	26.7	0	0	---	0.00	29.877 
00:50	28.5	28.5	28.5	92	26.5	0	0	---	0.00	29.877 
00:55	28.5	28.5	28.5	92	26.5	0	0	---	0.00	29.877 
01:00	28.5	28.5	28.5	92	26.5	0	0	---	0.00	29.872 
01:05	28.4	28.4	28.4	92	26.4	0	0	---	0.00	29.872 
01:10	28.2	28.2	28.2	92	26.2	0	0	---	0.00	29.872 
01:15	28.2	28.2	28.2	92	26.2	0	0	---	0.00	29.870 
01:20	28.1	28.1	28.1	92	26.1	0	0	---	0.00	29.870 
01:25	27.9	27.9	27.9	92	25.9	0	0	---	0.00	29.870 
01:30	27.8	27.8	27.8	92	25.8	0	0	---	0.00	29.866 
01:35	27.8	27.8	27.8	92	25.8	0	0	---	0.00	29.866 
01:40	27.6	27.6	27.6	92	25.6	0	0	---	0.00	29.866 
01:45	27.5	27.5	27.5	92	25.5	0	0	---	0.00	29.857 
01:50	27.3	27.3	27.3	92	25.3	0	0	---	0.00	29.857 
01:55	27.2	27.2	27.2	92	25.2	0	0	---	0.00	29.857 
02:00	27.2	27.2	27.2	92	25.2	0	0	---	0.00	29.857 
02:05	27.3	27.3	27.3	92	25.3	0	0	---	0.00	29.857 
02:10	27.2	27.2	27.2	92	25.2	0	0	---	0.00	29.857 
02:15	27.2	27.2	27.2	92	25.2	0	0	---	0.00	29.854 
02:20	27.2	27.2	27.2	92	25.2	0	0	---	0.00	29.854 
02:25	27.0	27.0	27.0	92	25.0	0	0	---	0.00	29.854 
02:30	27.0	27.0	27.0	92	25.0	0	0	---	0.00	29.850 
02:35	26.9	26.9	26.9	92	24.9	0	0	---	0.00	29.850 
02:40	26.7	26.7	26.7	92	24.7	0	0	---	0.00	29.850 
02:45	26.6	26.6	26.6	92	24.6	0	0	---	0.00	29.846 
02:50	26.6	26.6	26.6	92	24.6	0	0	---	0.00	29.846 
02:55	26.6	26.6	26.6	92	24.6	0	0	---	0.00	29.846 
03:00	26.6	26.6	26.6	92	24.6	0	0	---	0.00	29.845 
03:05	26.6	26.6	26.6	92	24.6	0	0	---	0.00	29.845 
03:10	26.4	26.4	26.4	92	24.4	0	0	---	0.00	29.845 
03:15	26.4	26.4	26.4	92	24.4	0	0	---	0.00	29.846 
03:20	26.4	26.4	26.4	92	24.4	0	0	---	0.00	29.846 
03:25	26.4	26.4	26.4	92	24.4	0	0	---	0.00	29.846 
03:30	26.4	26.4	26.4	92	24.4	0	0	---	0.00	29.844 
03:35	26.3	26.3	26.3	92	24.3	0	0	---	0.00	29.844 
03:40	26.3	26.3	26.3	93	24.6	0	0	---	0.00	29.844 
03:45	26.3	26.3	26.3	93	24.6	0	0	---	0.00	29.840 
03:50	26.3	26.3	26.3	93	24.6	0	0	---	0.00	29.840 
03:55	26.3	26.3	26.3	93	24.6	0	0	---	0.00	29.840 
04:00	26.3	26.3	26.3	92	24.3	0	0	---	0.00	29.834 
04:05	26.1	26.1	26.1	92	24.1	0	0	---	0.00	29.834 
04:10	26.0	26.0	26.0	92	24.0	0	0	---	0.00	29.834 
04:15	25.8	25.8	25.8	93	24.1	0	0	---	0.00	29.829 
04:20	25.8	25.8	25.8	93	24.1	0	0	---	0.00	29.829 
04:25	26.0	26.0	26.0	93	24.3	0	0	---	0.00	29.829 
04:30	26.0	26.0	26.0	93	24.3	0	0	---	0.00	29.822 
04:35	26.0	26.0	26.0	93	24.3	0	0	---	0.00	29.822 
04:40	25.8	25.8	25.8	93	24.1	0	0	---	0.00	29.822 
04:45	25.8	25.8	25.8	93	24.1	0	0	---	0.00	29.818 
04:50	25.8	25.8	25.8	93	24.1	0	0	---	0.00	29.818 
04:55	25.7	25.7	25.7	93	24.0	0	0	---	0.00	29.818 
05:00	25.6	25.6	25.6	92	23.6	0	0	---	0.00	29.813 
05:05	25.4	25.4	25.4	92	23.4	0	0	---	0.00	29.813 
05:10	25.3	25.3	25.3	92	23.3	0	0	---	0.00	29.813 
05:15	25.1	25.1	25.1	92	23.1	0	0	---	0.00	29.816 
05:20	25.1	25.1	25.1	93	23.4	0	0	---	0.00	29.816 
05:25	25.1	25.1	25.1	92	23.1	0	0	---	0.00	29.816 
05:30	25.0	25.0	25.0	92	23.0	0	0	---	0.00	29.816 
05:35	24.8	24.8	24.8	92	22.8	0	0	---	0.00	29.816 
05:40	24.8	24.8	24.8	92	22.8	0	0	---	0.00	29.816 
05:45	24.7	24.7	24.7	92	22.7	0	0	---	0.00	29.813 
05:50	24.7	24.7	24.7	93	23.0	0	0	---	0.00	29.813 
05:55	24.7	24.7	24.7	92	22.7	0	0	---	0.00	29.813 
06:00	24.7	24.7	24.7	92	22.7	0	0	---	0.00	29.805 
06:05	24.7	24.7	24.7	92	22.7	0	0	---	0.00	29.805 
06:10	24.7	24.7	24.7	93	23.0	0	0	---	0.00	29.805 
06:15	24.7	24.7	24.7	93	23.0	0	0	---	0.00	29.804 
06:20	24.8	24.8	24.8	93	23.1	0	0	---	0.00	29.804 
06:25	25.0	25.0	25.0	93	23.3	0	0	---	0.00	29.804 
06:30	25.0	25.0	25.0	93	23.3	0	0	---	0.00	29.802 
06:35	24.8	24.8	24.8	93	23.1	0	0	---	0.00	29.802 
06:40	24.8	24.8	24.8	93	23.1	0	0	---	0.00	29.802 
06:45	24.8	24.8	24.8	93	23.1	0	0	---	0.00	29.802 
06:50	24.8	24.8	24.8	93	23.1	0	0	---	0.00	29.802 
06:55	25.0	25.0	25.0	93	23.3	0	0	---	0.00	29.802 
07:00	25.1	25.1	25.1	93	23.4	0	0	---	0.00	29.799 
07:05	25.3	25.3	25.3	93	23.6	0	0	---	0.00	29.799 
07:10	25.4	25.4	25.4	93	23.7	0	0	---	0.00	29.799 
07:15	25.6	25.6	25.6	93	23.9	0	0	---	0.00	29.796 
07:20	25.6	25.6	25.6	93	23.9	0	0	---	0.00	29.796 
07:25	25.6	25.6	25.6	93	23.9	0	0	---	0.00	29.796 
07:30	25.7	25.7	25.7	93	24.0	0	0	---	0.00	29.791 
07:35	25.7	25.7	25.7	93	24.0	0	0	---	0.00	29.791 
07:40	25.8	25.8	25.8	93	24.1	0	0	---	0.00	29.791 
07:45	25.8	25.8	25.8	93	24.1	0	0	---	0.00	29.793 
07:50	26.0	26.0	26.0	93	24.3	0	0	---	0.00	29.793 
07:55	26.3	26.3	26.3	93	24.6	0	0	---	0.00	29.793 
08:00	26.3	26.3	26.3	93	24.6	0	0	---	0.00	29.798 
08:05	26.4	26.4	26.4	93	24.7	0	0	---	0.00	29.798 
08:10	26.6	26.6	26.6	93	24.9	0	0	---	0.00	29.798 
08:15	26.7	26.7	26.7	94	25.2	0	1	248	0.00	29.792 
08:20	27.2	27.2	27.2	94	25.7	0	1	248	0.00	29.792 
08:25	27.5	27.5	27.5	94	26.0	1	3	248	0.00	29.792 
08:30	27.6	27.6	27.6	94	26.1	1	2	248	0.00	29.791 
08:35	27.9	27.9	27.9	94	26.4	0	0	---	0.00	29.791 
08:40	28.1	28.1	28.1	94	26.6	0	1	248	0.00	29.791 
08:45	28.4	28.4	28.4	94	26.9	0	1	248	0.00	29.794 
08:50	28.5	28.5	28.5	94	27.0	0	1	248	0.00	29.794 
08:55	28.8	28.8	28.8	94	27.3	0	1	248	0.00	29.794 
09:00	29.1	29.1	29.1	94	27.6	0	1	248	0.00	29.803 
09:05	29.5	29.5	29.5	95	28.2	0	1	248	0.00	29.803 
09:10	30.0	30.0	30.0	95	28.7	1	2	248	0.00	29.803 
09:15	30.4	30.4	30.4	95	29.1	0	1	248	0.00	29.798 
09:20	30.7	30.7	30.7	95	29.4	0	2	248	0.00	29.798 
09:25	30.9	30.9	30.9	95	29.6	0	1	248	0.00	29.798 
09:30	31.0	31.0	31.0	95	29.7	0	1	248	0.00	29.801 
09:35	31.3	31.3	31.3	95	30.0	0	1	248	0.00	29.801 
09:40	31.5	31.5	31.5	95	30.2	0	1	248	0.00	29.801 
09:45	31.6	31.6	31.6	95	30.3	0	1	248	0.00	29.795 
09:50	31.8	31.8	31.8	95	30.5	0	1	248	0.00	29.795 
09:55	31.8	31.8	31.8	95	30.5	0	0	---	0.00	29.795 
10:00	31.9	31.9	31.9	95	30.6	0	1	248	0.00	29.789 
10:05	31.9	31.9	31.9	95	30.6	0	0	---	0.00	29.789 
10:10	32.1	32.1	32.1	95	30.8	0	0	---	0.00	29.789 
10:15	32.2	32.2	32.2	95	30.9	0	0	---	0.00	29.789 
10:20	32.4	32.4	32.4	95	31.1	0	0	---	0.00	29.789 
10:25	32.4	32.4	32.4	95	31.1	0	0	---	0.00	29.789 
10:30	32.7	32.7	32.7	95	31.4	0	1	248	0.00	29.782 
10:35	32.8	32.8	32.8	95	31.5	0	0	---	0.00	29.782 
10:40	33.1	33.1	33.1	95	31.8	0	0	---	0.00	29.782 
10:45	33.4	33.4	33.4	95	32.1	0	0	---	0.00	29.776 
10:50	33.7	33.7	33.7	95	32.4	0	0	---	0.00	29.776 
10:55	33.8	33.8	33.8	95	32.5	0	0	---	0.00	29.776 
11:00	34.1	34.1	34.1	96	33.1	0	0	---	0.00	29.771 
11:05	34.4	34.4	34.4	96	33.4	0	0	---	0.00	29.771 
11:10	34.6	34.6	34.6	96	33.6	0	1	248	0.00	29.771 
11:15	34.9	34.9	34.9	96	33.9	0	1	248	0.00	29.774 
11:20	34.9	34.9	34.9	96	33.9	0	3	248	0.00	29.774 
11:25	35.0	35.0	35.0	96	34.0	0	1	248	0.00	29.774 
11:30	35.2	35.2	35.2	96	34.2	0	1	248	0.00	29.767 
11:35	35.3	35.3	35.3	96	34.3	0	2	248	0.01	29.767 
11:40	35.5	35.5	35.5	96	34.5	0	2	248	0.00	29.767 
11:45	35.6	35.6	35.6	96	34.6	0	2	248	0.00	29.760 
11:50	35.8	35.8	35.8	96	34.8	0	2	248	0.00	29.760 
11:55	35.9	35.9	35.9	96	34.9	0	3	248	0.00	29.760 
12:00	35.9	35.9	35.9	96	34.9	0	1	248	0.00	29.756 
12:05	36.0	36.0	36.0	96	35.0	0	2	248	0.00	29.756 
12:10	36.0	36.0	36.0	96	35.0	0	1	248	0.00	29.756 
12:15	35.9	35.9	35.9	95	34.6	0	2	248	0.00	29.756 
12:20	36.0	36.0	36.0	96	35.0	0	2	248	0.00	29.756 
12:25	36.0	36.0	36.0	96	35.0	0	3	248	0.00	29.756 
12:30	36.0	36.0	36.0	95	34.7	1	4	248	0.00	29.755 
12:35	36.0	36.0	36.0	95	34.7	0	2	248	0.00	29.755 
12:40	36.0	36.0	36.0	95	34.7	0	3	248	0.00	29.755 
12:45	36.0	36.0	36.0	95	34.7	0	1	248	0.00	29.752 
12:50	36.0	36.0	36.0	95	34.7	0	3	248	0.00	29.752 
12:55	36.0	36.0	36.0	95	34.7	0	3	248	0.00	29.752 
13:00	36.2	36.2	36.2	95	34.9	0	2	248	0.00	29.749 
13:05	36.2	36.2	36.2	95	34.9	0	2	248	0.00	29.749 
13:10	36.2	36.2	36.2	95	34.9	0	1	248	0.00	29.749 
13:15	36.2	36.2	36.2	95	34.9	0	2	248	0.00	29.745 
13:20	36.3	36.3	36.3	95	35.0	0	1	248	0.00	29.745 
13:25	36.5	36.5	36.5	95	35.2	0	1	248	0.00	29.745 
13:30	36.6	36.6	36.6	94	35.0	0	2	248	0.00	29.740 
13:35	36.6	36.6	36.6	94	35.0	0	1	248	0.00	29.740 
13:40	36.6	36.6	36.6	94	35.0	0	3	248	0.00	29.740 
13:45	36.6	36.6	36.6	94	35.0	0	3	248	0.00	29.741 
13:50	36.5	36.5	36.5	93	34.7	0	2	248	0.00	29.741 
13:55	36.6	36.6	36.6	93	34.8	0	1	248	0.00	29.741 
14:00	36.9	36.9	36.9	93	35.1	0	1	248	0.00	29.739 
14:05	37.0	37.0	37.0	93	35.2	0	2	248	0.00	29.739 
14:10	37.2	37.2	37.2	92	35.1	0	2	248	0.00	29.739 
14:15	37.2	37.2	37.2	91	34.8	1	3	248	0.00	29.739 
14:20	37.3	37.3	37.3	90	34.6	1	5	248	0.00	29.739 
14:25	37.3	37.3	37.3	89	34.4	1	5	248	0.00	29.739 
14:30	37.5	37.5	37.5	91	35.1	1	3	248	0.00	29.742 
14:35	37.2	37.2	37.2	86	33.4	1	4	248	0.00	29.742 
14:40	37.0	37.0	37.0	85	32.9	1	3	270	0.00	29.742 
14:45	36.9	36.9	36.9	84	32.5	0	2	270	0.00	29.752 
14:50	36.9	36.9	36.9	83	32.2	0	2	270	0.00	29.752 
14:55	36.8	36.8	36.8	82	31.8	0	4	270	0.00	29.752 
15:00	36.8	36.8	36.8	82	31.8	1	3	248	0.00	29.755 
15:05	36.6	36.6	36.6	81	31.3	1	4	270	0.00	29.755 
15:10	36.5	36.5	36.5	81	31.2	0	3	270	0.00	29.755 
15:15	36.5	36.5	36.5	82	31.5	0	3	270	0.00	29.757 
15:20	36.6	36.6	36.6	82	31.6	0	3	0	0.00	29.757 
15:25	36.8	36.8	36.8	81	31.5	0	3	292	0.00	29.757 
15:30	36.9	36.9	36.9	80	31.3	0	4	270	0.00	29.765 
15:35	36.9	36.9	36.9	79	31.0	0	3	248	0.00	29.765 
15:40	36.8	36.8	36.8	78	30.6	1	3	248	0.00	29.765 
15:45	36.6	36.6	36.6	77	30.1	1	4	248	0.00	29.778 
15:50	36.3	36.3	36.3	74	28.8	2	6	248	0.00	29.778 
15:55	36.2	36.2	36.2	73	28.4	1	4	248	0.00	29.778 
16:00	36.0	36.0	36.0	73	28.2	1	3	248	0.00	29.790 
16:05	36.0	36.0	36.0	74	28.5	0	2	248	0.00	29.790 
16:10	35.9	35.9	35.9	73	28.1	1	5	248	0.00	29.790 
16:15	35.8	35.8	35.8	73	28.0	1	4	248	0.00	29.804 
16:20	35.8	35.8	35.8	73	28.0	1	4	248	0.00	29.804 
16:25	35.6	35.6	35.6	73	27.8	2	6	248	0.00	29.804 
16:30	35.6	35.6	35.6	74	28.1	1	3	248	0.00	29.810 
16:35	35.5	35.5	35.5	74	28.0	1	4	248	0.00	29.810 
16:40	35.5	35.5	35.5	74	28.0	1	4	248	0.00	29.810 
16:45	35.5	35.5	35.5	75	28.4	0	4	248	0.00	29.819 
16:50	35.5	35.5	35.5	74	28.0	0	2	248	0.00	29.819 
16:55	35.3	35.3	35.3	74	27.9	1	4	248	0.00	29.819 
17:00	35.3	35.3	35.3	74	27.9	0	2	248	0.00	29.826 
17:05	35.3	35.3	35.3	75	28.2	0	2	248	0.00	29.826 
17:10	35.3	35.3	35.3	75	28.2	0	3	248	0.00	29.826 
17:15	35.2	35.2	35.2	74	27.8	1	5	270	0.00	29.830 
17:20	35.2	35.2	35.2	73	27.4	1	3	270	0.00	29.830 
17:25	35.2	35.2	35.2	73	27.4	0	2	270	0.00	29.830 
17:30	35.0	35.0	35.0	73	27.2	0	3	270	0.00	29.838 
17:35	35.0	35.0	35.0	74	27.6	1	3	270	0.00	29.838 
17:40	35.0	35.0	35.0	74	27.6	0	3	270	0.00	29.838 
17:45	34.9	34.9	34.9	75	27.8	0	2	270	0.00	29.840 
17:50	34.9	34.9	34.9	76	28.1	0	2	270	0.00	29.840 
17:55	34.7	34.7	34.7	76	27.9	0	2	270	0.00	29.840 
18:00	34.7	34.7	34.7	77	28.2	0	2	270	0.00	29.850 
18:05	34.6	34.6	34.6	77	28.1	0	3	270	0.00	29.850 
18:10	34.6	34.6	34.6	77	28.1	0	1	270	0.00	29.850 
18:15	34.4	34.4	34.4	77	27.9	0	3	270	0.00	29.854 
18:20	34.3	34.3	34.3	78	28.2	0	1	270	0.00	29.854 
18:25	34.1	34.1	34.1	78	28.0	0	2	270	0.00	29.854 
18:30	34.1	34.1	34.1	78	28.0	0	1	270	0.00	29.856 
18:35	34.0	34.0	34.0	79	28.2	0	1	270	0.00	29.856 
18:40	33.8	33.8	33.8	79	28.0	0	3	270	0.00	29.856 
18:45	33.7	33.7	33.7	79	27.9	0	2	270	0.00	29.864 
18:50	33.5	33.5	33.5	80	28.0	0	3	270	0.00	29.864 
18:55	33.4	33.4	33.4	80	27.9	0	1	270	0.00	29.864 
19:00	33.4	33.4	33.4	81	28.2	0	1	270	0.00	29.867 
19:05	33.2	33.2	33.2	81	28.0	0	1	270	0.00	29.867 
19:10	33.1	33.1	33.1	81	27.9	0	2	270	0.00	29.867 
19:15	32.9	32.9	32.9	81	27.7	0	1	270	0.00	29.871 
19:20	32.8	32.8	32.8	82	27.9	0	2	270	0.00	29.871 
19:25	32.7	32.7	32.7	82	27.8	0	2	270	0.00	29.871 
19:30	32.7	32.7	32.7	83	28.1	0	2	270	0.00	29.874 
19:35	32.7	32.7	32.7	83	28.1	0	3	270	0.00	29.874 
19:40	32.5	32.5	32.5	83	27.9	0	1	270	0.00	29.874 
19:45	32.5	32.5	32.5	84	28.2	0	1	270	0.00	29.881 
19:50	32.4	32.4	32.4	84	28.1	0	2	270	0.00	29.881 
19:55	32.4	32.4	32.4	84	28.1	0	1	270	0.00	29.881 
20:00	32.4	32.4	32.4	84	28.1	0	1	270	0.00	29.885 
20:05	32.2	32.2	32.2	85	28.2	0	1	270	0.00	29.885 
20:10	32.2	32.2	32.2	85	28.2	0	1	270	0.00	29.885 
20:15	32.1	32.1	32.1	85	28.1	0	1	270	0.00	29.885 
20:20	32.1	32.1	32.1	86	28.4	0	2	270	0.00	29.885 
20:25	32.1	32.1	32.1	86	28.4	0	1	270	0.00	29.885 
20:30	32.1	32.1	32.1	86	28.4	0	1	270	0.00	29.886 
20:35	32.1	32.1	32.1	86	28.4	0	1	270	0.00	29.886 
20:40	32.1	32.1	32.1	87	28.7	0	1	270	0.00	29.886 
20:45	32.2	32.2	32.2	87	28.8	0	1	270	0.00	29.893 
20:50	32.2	32.2	32.2	87	28.8	0	1	270	0.00	29.893 
20:55	32.2	32.2	32.2	87	28.8	0	1	270	0.00	29.893 
21:00	32.2	32.2	32.2	87	28.8	0	1	270	0.00	29.898 
21:05	32.2	32.2	32.2	88	29.1	0	1	270	0.00	29.898 
21:10	32.2	32.2	32.2	88	29.1	0	1	270	0.00	29.898 
21:15	32.2	32.2	32.2	88	29.1	0	1	270	0.00	29.899 
21:20	32.2	32.2	32.2	88	29.1	0	2	270	0.00	29.899 
21:25	32.2	32.2	32.2	88	29.1	0	1	270	0.00	29.899 
21:30	32.2	32.2	32.2	88	29.1	0	2	270	0.00	29.905 
21:35	32.2	32.2	32.2	88	29.1	0	2	270	0.00	29.905 
21:40	32.2	32.2	32.2	88	29.1	0	2	270	0.00	29.905 
21:45	32.2	32.2	32.2	88	29.1	0	1	270	0.00	29.908 
21:50	32.1	32.1	32.1	89	29.2	0	2	270	0.00	29.908 
21:55	32.1	32.1	32.1	89	29.2	0	2	270	0.00	29.908 
22:00	32.1	32.1	32.1	89	29.2	0	3	270	0.00	29.911 
22:05	32.1	32.1	32.1	89	29.2	0	1	270	0.00	29.911 
22:10	32.1	32.1	32.1	89	29.2	0	2	270	0.00	29.911 
22:15	32.1	32.1	32.1	89	29.2	0	3	270	0.00	29.911 
22:20	32.1	32.1	32.1	89	29.2	0	2	270	0.00	29.911 
22:25	31.9	31.9	31.9	89	29.0	0	2	270	0.00	29.911 
22:30	31.9	31.9	31.9	89	29.0	0	2	270	0.00	29.920 
22:35	31.9	31.9	31.9	89	29.0	0	1	270	0.00	29.920 
22:40	31.8	31.8	31.8	89	28.9	0	2	270	0.00	29.920 
22:45	31.8	31.8	31.8	90	29.2	0	3	270	0.00	29.925 
22:50	31.8	31.8	31.8	90	29.2	0	1	270	0.00	29.925 
22:55	31.9	31.9	31.9	90	29.3	1	2	270	0.00	29.925 
23:00	31.9	31.9	31.9	90	29.3	0	3	270	0.00	29.927 
23:05	31.9	31.9	31.9	90	29.3	0	2	270	0.00	29.927 
23:10	31.9	31.9	31.9	90	29.3	0	2	270	0.00	29.927 
23:15	31.9	31.9	31.9	90	29.3	0	2	270	0.00	29.926 
23:20	31.9	31.9	31.9	90	29.3	0	2	270	0.00	29.926 
23:25	32.1	32.1	32.1	90	29.5	0	2	270	0.00	29.926 
23:30	32.1	32.1	32.1	90	29.5	0	4	270	0.00	29.936 
23:35	32.2	32.2	32.2	89	29.3	1	6	248	0.00	29.936 
23:40	32.4	32.4	32.4	89	29.5	1	2	248	0.00	29.936 
23:45	32.4	32.4	32.4	89	29.5	1	2	248	0.00	29.942 
23:50	32.5	32.5	32.5	89	29.6	1	3	248	0.00	29.942 
23:55	32.5	32.5	32.5	88	29.3	0	3	248	0.00	29.942 

CoCoRaHS
IN-AL-39
A2 Web Hosting
Creative Commons License
GoDaddy
search engine by freefind advanced

loaded 2018-11-13 18:01:08 • last modified 2010-11-18 10:43:29
Privacy PolicyDisclaimer
• wx.awcolley.com is powered by PmWiki v.2002016 •
• all content (unless otherwise noted) © 2018 A W Colley